Time;durP1;ratioP1;P1;durP2;ratioP2;P2;SDS_P1;SDS_P2;PMS_P1;PMS_P2;Temp;Humidity;BMP_temperature;BMP_pressure;BME280_temperature;BME280_humidity;BME280_pressure;Samples;Min_cycle;Max_cycle;Signal;HPM_P1;HPM_P2
2022/12/25 00:00:29;;;;;;;4.30;2.90;;;;;;;-1.09;96.99;101369.88;4979229;28;20265;-70
2022/12/25 00:02:55;;;;;;;4.57;3.17;;;;;;;-1.07;97.05;101383.72;4996031;28;20257;-70
2022/12/25 00:05:20;;;;;;;6.33;3.53;;;;;;;-1.12;96.79;101370.03;4996173;28;20029;-69
2022/12/25 00:07:46;;;;;;;5.50;3.23;;;;;;;-1.09;96.77;101377.72;4997028;28;20034;-69
2022/12/25 00:10:11;;;;;;;4.63;3.53;;;;;;;-1.05;96.85;101386.28;4996473;28;20389;-70
2022/12/25 00:12:39;;;;;;;6.93;4.73;;;;;;;-1.03;96.45;101387.88;4979194;28;20453;-70
2022/12/25 00:15:05;;;;;;;8.87;3.20;;;;;;;-0.97;96.85;101390.19;5001356;28;20285;-70
2022/12/25 00:17:30;;;;;;;5.73;4.07;;;;;;;-0.96;96.91;101386.66;5013964;28;20031;-70
2022/12/25 00:19:56;;;;;;;7.67;6.03;;;;;;;-0.96;96.65;101370.97;5015249;28;20042;-71
2022/12/25 00:22:21;;;;;;;11.37;3.73;;;;;;;-0.89;96.17;101396.81;5015712;28;20046;-70
2022/12/25 00:24:47;;;;;;;5.73;3.27;;;;;;;-0.91;95.94;101393.44;4997722;28;20050;-70
2022/12/25 00:27:12;;;;;;;7.90;3.33;;;;;;;-0.92;95.56;101403.03;4995408;28;20022;-69
2022/12/25 00:29:38;;;;;;;4.27;2.37;;;;;;;-0.89;95.34;101396.81;5005320;28;20436;-71
2022/12/25 00:32:03;;;;;;;4.73;2.97;;;;;;;-1.15;95.34;101354.50;5002632;28;20022;-71
2022/12/25 00:34:29;;;;;;;7.17;3.33;;;;;;;-0.89;94.50;101402.91;5004227;28;20033;-69
2022/12/25 00:36:57;;;;;;;5.17;3.10;;;;;;;-0.94;94.94;101403.13;4986747;28;20490;-68
2022/12/25 00:39:24;;;;;;;4.00;2.60;;;;;;;-0.92;94.24;101405.66;5000398;28;20486;-72
2022/12/25 00:44:35;;;;;;;6.07;2.90;;;;;;;-1.00;94.05;101395.59;4995522;28;20033;-70
2022/12/25 00:47:01;;;;;;;4.73;3.10;;;;;;;-1.00;93.72;101408.66;4995292;28;20605;-70
2022/12/25 00:49:26;;;;;;;4.37;3.00;;;;;;;-0.99;93.79;101407.72;4995202;28;20034;-68
2022/12/25 00:51:52;;;;;;;8.33;2.90;;;;;;;-0.98;93.81;101409.44;4995336;28;20177;-70
2022/12/25 00:54:19;;;;;;;4.40;2.80;;;;;;;-0.94;93.74;101418.81;4995398;28;20448;-70
2022/12/25 00:56:44;;;;;;;5.20;2.30;;;;;;;-0.98;92.71;101414.66;4995040;28;20060;-69
2022/12/25 00:59:10;;;;;;;3.47;2.47;;;;;;;-1.02;93.23;101420.94;4994856;28;20278;-70
2022/12/25 01:01:37;;;;;;;4.50;2.97;;;;;;;-1.04;93.31;101420.19;4995021;28;20018;-70
2022/12/25 01:04:03;;;;;;;4.50;3.00;;;;;;;-1.10;93.55;101409.16;4995043;28;20031;-69
2022/12/25 01:06:29;;;;;;;7.00;2.93;;;;;;;-1.02;93.76;101428.78;4996009;28;20262;-70
2022/12/25 01:11:39;;;;;;;5.67;3.00;;;;;;;-1.09;93.89;101437.00;4995176;28;20266;-69
2022/12/25 01:14:04;;;;;;;4.73;2.97;;;;;;;-1.10;94.33;101444.00;4995773;28;20257;-70
2022/12/25 01:16:30;;;;;;;4.37;3.47;;;;;;;-1.10;94.86;101441.38;4995102;28;20049;-70
2022/12/25 01:18:56;;;;;;;5.43;3.37;;;;;;;-1.08;94.93;101450.00;4995100;28;20031;-70
2022/12/25 01:21:22;;;;;;;8.53;3.40;;;;;;;-1.08;94.91;101455.22;4994609;28;20034;-70
2022/12/25 01:23:49;;;;;;;5.63;3.00;;;;;;;-1.06;94.17;101456.00;4994687;28;20466;-69
2022/12/25 01:26:16;;;;;;;3.53;3.17;;;;;;;-1.05;94.94;101465.53;4994144;28;20280;-70
2022/12/25 01:28:42;;;;;;;5.97;3.80;;;;;;;-1.06;94.48;101468.22;4994682;28;20268;-70
2022/12/25 01:31:10;;;;;;;5.33;2.90;;;;;;;-1.08;94.39;101478.75;4994349;28;20266;-70
2022/12/25 01:33:40;;;;;;;7.22;3.95;;;;;;;-1.15;94.04;101479.97;4994770;28;20262;-70
2022/12/25 01:36:22;;;;;;;6.50;2.80;;;;;;;-1.13;94.51;101488.59;4977146;28;20582;-70
2022/12/25 01:38:51;;;;;;;8.70;3.10;;;;;;;-1.15;94.40;101479.97;4995885;28;20841;-70
2022/12/25 01:41:20;;;;;;;6.83;2.80;;;;;;;-1.15;94.21;101481.72;4995250;28;20290;-70
2022/12/25 01:44:03;;;;;;;4.80;3.03;;;;;;;-1.09;94.56;101490.13;4994729;28;20261;-70
2022/12/25 01:46:29;;;;;;;3.10;2.40;;;;;;;-1.08;93.53;101486.59;4996673;28;20050;-70
2022/12/25 01:48:59;;;;;;;3.63;3.07;;;;;;;-1.04;93.61;101488.16;4995015;28;20250;-69
2022/12/25 01:51:32;;;;;;;5.03;2.60;;;;;;;-1.01;93.38;101487.16;4995710;28;20270;-71
2022/12/25 01:54:02;;;;;;;3.90;2.40;;;;;;;-1.04;92.29;101488.16;4997545;28;20257;-70
2022/12/25 01:56:28;;;;;;;4.37;2.43;;;;;;;-1.03;93.14;101489.00;4997738;28;20614;-69
2022/12/25 01:58:56;;;;;;;3.20;2.90;;;;;;;-0.98;91.85;101495.69;4996931;28;20741;-70
2022/12/25 02:01:22;;;;;;;5.83;2.33;;;;;;;-0.97;91.50;101483.47;4996440;28;20348;-70
2022/12/25 02:03:47;;;;;;;6.47;3.10;;;;;;;-0.91;91.27;101503.25;4994988;28;20345;-71
2022/12/25 02:06:13;;;;;;;4.73;2.40;;;;;;;-0.92;90.99;101502.41;4994196;28;20029;-70
2022/12/25 02:08:40;;;;;;;3.53;2.20;;;;;;;-0.84;90.83;101512.53;4994279;28;20109;-69
2022/12/25 02:11:55;;;;;;;3.93;2.20;;;;;;;-0.85;90.36;101503.00;4994031;28;20130;-68
2022/12/25 02:13:53;;;;;;;7.50;2.87;;;;;;;-0.85;91.16;101509.06;4993661;28;20265;-71
2022/12/25 02:16:27;;;;;;;5.80;3.17;;;;;;;-0.97;90.99;101501.78;4993605;28;20289;-70
2022/12/25 02:18:59;;;;;;;6.33;2.47;;;;;;;-0.94;91.64;101518.16;4993947;28;20036;-70
2022/12/25 02:21:36;;;;;;;4.37;2.47;;;;;;;-0.91;91.99;101524.19;4993643;28;20265;-70
2022/12/25 02:24:48;;;;;;;6.27;2.90;;;;;;;-1.07;92.84;101508.38;4993616;28;20753;-71
2022/12/25 02:27:22;;;;;;;7.83;2.90;;;;;;;-1.06;93.21;101516.13;4993627;28;20261;-69
2022/12/25 02:30:06;;;;;;;3.27;2.60;;;;;;;-1.26;93.29;101492.66;4993835;28;20272;-70
2022/12/25 02:32:49;;;;;;;5.90;3.37;;;;;;;-1.12;94.27;101519.03;4993944;28;20618;-69
2022/12/25 02:35:27;;;;;;;6.17;2.80;;;;;;;-1.11;94.28;101523.34;4994467;28;20317;-70
2022/12/25 02:38:04;;;;;;;5.88;2.60;;;;;;;-1.08;94.10;101523.19;4994052;28;20316;-70
2022/12/25 02:40:52;;;;;;;3.90;2.60;;;;;;;-1.04;94.27;101529.97;4994016;28;20034;-70
2022/12/25 03:11:29;;;;;;;2.57;2.27;;;;;;;-0.94;92.87;101557.41;4993228;28;20250;-70
2022/12/25 03:11:55;;;;;;;5.22;2.25;;;;;;;-1.12;93.63;101539.94;4993086;28;20257;-70
2022/12/25 03:17:08;;;;;;;4.53;2.23;;;;;;;-1.11;94.18;101552.09;4992849;28;20293;-70
2022/12/25 03:27:56;;;;;;;5.20;2.70;;;;;;;-1.02;93.68;101558.66;4992992;28;20269;-70
2022/12/25 03:33:33;;;;;;;4.33;2.60;;;;;;;-1.10;94.30;101572.09;4992663;28;20262;-71
2022/12/25 03:36:23;;;;;;;3.43;2.50;;;;;;;-1.17;94.69;101567.19;4992935;28;20282;-69
2022/12/25 04:37:20;;;;;;;8.57;3.67;;;;;;;-1.77;95.65;101621.13;4999972;28;20373;-70
2022/12/25 04:39:46;;;;;;;3.93;3.03;;;;;;;-1.85;96.57;101612.78;4981010;28;20660;-71
2022/12/25 04:42:11;;;;;;;4.63;3.07;;;;;;;-1.74;96.98;101616.63;4998538;28;20270;-71
2022/12/25 04:44:37;;;;;;;4.57;3.07;;;;;;;-1.71;96.67;101616.53;4998155;28;20076;-69
2022/12/25 04:47:02;;;;;;;3.77;2.60;;;;;;;-1.66;96.04;101625.03;5000085;28;20031;-71
2022/12/25 04:49:28;;;;;;;4.13;2.43;;;;;;;-1.69;95.75;101630.38;4999674;28;20046;-71
2022/12/25 04:51:53;;;;;;;3.90;2.50;;;;;;;-1.64;95.77;101628.41;4996177;28;20044;-70
2022/12/25 04:54:19;;;;;;;5.13;2.83;;;;;;;-1.66;95.35;101626.78;4995906;28;20113;-71
2022/12/25 04:56:46;;;;;;;3.63;2.37;;;;;;;-1.74;95.54;101629.69;4978979;28;20490;-71
2022/12/25 04:59:12;;;;;;;3.13;2.63;;;;;;;-1.82;95.42;101623.94;4978772;28;20262;-70
2022/12/25 05:01:38;;;;;;;6.90;2.70;;;;;;;-1.87;95.70;101631.09;4995627;28;20340;-71
2022/12/25 05:04:04;;;;;;;4.43;2.40;;;;;;;-1.96;95.83;101639.31;5000391;28;20113;-70
2022/12/25 05:06:30;;;;;;;4.90;2.70;;;;;;;-2.05;96.88;101637.06;4995409;28;20301;-71
2022/12/25 05:08:56;;;;;;;6.33;2.50;;;;;;;-2.20;96.72;101644.59;4995373;28;20042;-70
2022/12/25 05:11:21;;;;;;;5.13;2.47;;;;;;;-2.26;97.90;101628.34;4961609;28;20133;-68
2022/12/25 05:13:47;;;;;;;4.67;2.73;;;;;;;-2.33;98.01;101637.28;4961752;28;20329;-68
2022/12/25 05:16:18;;;;;;;2.80;2.50;;;;;;;-2.39;98.09;101630.53;4961927;28;20030;-71
2022/12/25 05:18:49;;;;;;;3.10;2.70;;;;;;;-2.39;98.66;101633.16;4977992;28;20023;-70
2022/12/25 05:21:16;;;;;;;5.47;2.40;;;;;;;-2.45;99.21;101622.97;4995123;28;20049;-71
2022/12/25 05:23:47;;;;;;;7.93;4.07;;;;;;;-2.33;98.57;101638.13;4977803;28;20265;-71
2022/12/25 05:26:18;;;;;;;5.10;2.77;;;;;;;-2.31;99.08;101636.34;4977727;28;20622;-71
2022/12/25 05:28:45;;;;;;;4.13;2.90;;;;;;;-2.25;98.38;101638.72;4995270;28;20613;-74
2022/12/25 05:31:11;;;;;;;5.57;2.80;;;;;;;-2.24;98.28;101645.63;4961900;28;20290;-75
2022/12/25 05:33:36;;;;;;;5.00;2.47;;;;;;;-2.26;97.86;101633.56;4961491;28;20290;-73
2022/12/25 05:36:04;;;;;;;4.10;2.73;;;;;;;-2.22;98.20;101654.25;4976229;28;20363;-72
2022/12/25 05:38:33;;;;;;;5.07;2.57;;;;;;;-2.27;98.68;101653.56;4994606;28;20057;-71
2022/12/25 05:40:59;;;;;;;6.17;2.87;;;;;;;-2.45;98.10;101638.59;4961134;28;20277;-72
2022/12/25 05:43:26;;;;;;;6.67;3.53;;;;;;;-2.41;98.75;101666.28;4994753;28;20729;-73
2022/12/25 05:45:52;;;;;;;8.43;3.30;;;;;;;-2.52;98.56;101669.28;4994947;28;20041;-73
2022/12/25 05:48:18;;;;;;;4.13;2.90;;;;;;;-2.48;98.72;101664.81;4976988;28;20257;-73
2022/12/25 05:50:44;;;;;;;2.73;2.50;;;;;;;-2.43;98.98;101673.31;4977749;28;20112;-72
2022/12/25 05:53:11;;;;;;;3.73;2.93;;;;;;;-2.36;99.20;101674.78;4977248;28;20038;-70
2022/12/25 05:55:38;;;;;;;4.77;3.03;;;;;;;-2.29;99.27;101676.28;4994377;28;20034;-71
2022/12/25 05:58:05;;;;;;;4.65;2.92;;;;;;;-2.38;98.58;101654.88;4994467;28;20264;-73
2022/12/25 06:00:31;;;;;;;4.40;2.90;;;;;;;-2.27;97.92;101695.31;4995335;28;20643;-73
2022/12/25 06:02:57;;;;;;;2.97;2.63;;;;;;;-2.34;98.61;101672.94;4995501;28;20268;-72
2022/12/25 06:05:24;;;;;;;3.33;2.80;;;;;;;-2.30;98.44;101687.63;4977799;28;20026;-73
2022/12/25 06:07:51;;;;;;;4.50;2.47;;;;;;;-2.24;98.28;101696.97;4977775;28;20646;-71
2022/12/25 06:10:17;;;;;;;3.17;2.47;;;;;;;-2.24;97.60;101697.81;4993521;28;20262;-70
2022/12/25 06:12:42;;;;;;;3.77;3.40;;;;;;;-2.29;97.45;101691.91;4994383;28;20026;-72
2022/12/25 06:15:08;;;;;;;5.70;3.17;;;;;;;-2.36;97.53;101686.97;4976305;28;20285;-70
2022/12/25 06:17:34;;;;;;;4.20;3.13;;;;;;;-2.35;97.50;101697.34;4993890;28;20418;-72
2022/12/25 06:19:59;;;;;;;6.10;2.60;;;;;;;-2.44;97.76;101700.31;4976889;28;20065;-72
2022/12/25 06:22:30;;;;;;;7.97;3.23;;;;;;;-2.50;98.52;101713.56;4993337;28;20033;-72
2022/12/25 06:24:59;;;;;;;3.00;2.70;;;;;;;-2.47;98.93;101712.63;4994770;28;20268;-69
2022/12/25 06:27:24;;;;;;;4.20;2.83;;;;;;;-2.44;98.92;101718.56;4998569;28;20269;-72
2022/12/25 06:29:50;;;;;;;7.37;3.20;;;;;;;-2.40;98.56;101727.97;4999618;28;20378;-73
2022/12/25 06:32:18;;;;;;;4.17;3.00;;;;;;;-2.40;98.23;101725.38;4996545;28;20109;-73
2022/12/25 06:34:44;;;;;;;6.33;3.10;;;;;;;-2.31;98.68;101719.84;4979038;28;20355;-69
2022/12/25 06:37:09;;;;;;;10.53;3.50;;;;;;;-2.56;97.88;101678.16;4995955;28;20125;-69
2022/12/25 06:39:37;;;;;;;3.38;2.78;;;;;;;-2.17;98.61;101734.09;4997850;28;20030;-72
2022/12/25 06:42:03;;;;;;;5.47;3.00;;;;;;;-2.19;97.12;101737.63;4980475;28;20042;-72
2022/12/25 06:44:28;;;;;;;2.53;2.33;;;;;;;-2.26;97.56;101745.75;4997599;28;20034;-71
2022/12/25 06:46:55;;;;;;;7.03;3.90;;;;;;;-2.42;96.67;101753.28;4994583;28;20045;-74
2022/12/25 06:49:21;;;;;;;6.53;3.53;;;;;;;-2.69;96.89;101742.06;4978443;28;20057;-74
2022/12/25 06:51:47;;;;;;;4.87;3.07;;;;;;;-2.82;98.23;101744.25;4994998;28;20265;-73
2022/12/25 06:54:12;;;;;;;9.13;3.53;;;;;;;-2.87;98.11;101761.81;4995573;28;20439;-73
2022/12/25 06:56:39;;;;;;;3.10;2.50;;;;;;;-2.93;98.60;101764.63;4995707;28;20026;-73
2022/12/25 06:59:07;;;;;;;4.33;2.90;;;;;;;-3.04;98.68;101764.13;4995422;28;20030;-71
2022/12/25 07:01:36;;;;;;;6.15;2.97;;;;;;;-3.11;99.23;101775.69;4995420;28;20302;-71
2022/12/25 07:04:10;;;;;;;6.07;3.13;;;;;;;-3.22;99.66;101765.59;4995230;28;20042;-72
2022/12/25 07:06:35;;;;;;;3.85;3.25;;;;;;;-3.33;100.00;101761.66;4989613;28;20026;-71
2022/12/25 07:09:01;;;;;;;6.47;3.50;;;;;;;-3.31;100.00;101765.03;4996049;28;20038;-70
2022/12/25 07:11:27;;;;;;;5.05;3.08;;;;;;;-3.29;100.00;101765.84;4977836;28;20117;-69
2022/12/25 07:13:53;;;;;;;7.73;3.33;;;;;;;-3.22;100.00;101785.56;4974826;28;20453;-70
2022/12/25 07:16:19;;;;;;;11.80;3.70;;;;;;;-3.12;100.00;101793.06;4992132;28;20057;-69
2022/12/25 07:18:44;;;;;;;6.90;3.17;;;;;;;-2.99;100.00;101788.28;4976644;28;20037;-70
2022/12/25 07:21:13;;;;;;;5.47;3.73;;;;;;;-2.91;100.00;101782.81;4994550;28;20065;-70
2022/12/25 07:23:40;;;;;;;6.28;3.60;;;;;;;-2.83;100.00;101784.28;4994696;28;20025;-69
2022/12/25 07:26:06;;;;;;;4.10;2.75;;;;;;;-2.85;100.00;101780.88;4961975;28;20022;-74
2022/12/25 07:28:32;;;;;;;8.10;3.90;;;;;;;-2.86;99.83;101780.94;4979192;28;20390;-68
2022/12/25 07:31:07;;;;;;;7.28;4.45;;;;;;;-2.83;100.00;101802.53;4978665;28;20119;-69
2022/12/25 07:33:33;;;;;;;4.57;3.30;;;;;;;-2.90;100.00;101800.16;4958954;28;20369;-71
2022/12/25 07:35:59;;;;;;;12.67;6.53;;;;;;;-2.91;100.00;101799.28;4992838;28;20351;-70
2022/12/25 07:38:30;;;;;;;8.00;4.40;;;;;;;-2.94;99.95;101809.84;4964964;28;20137;-71
2022/12/25 07:40:56;;;;;;;9.20;4.35;;;;;;;-3.05;100.00;101793.72;4979349;28;20274;-74
2022/12/25 07:43:22;;;;;;;5.33;3.60;;;;;;;-3.03;100.00;101807.53;4976870;28;20033;-74
2022/12/25 07:45:53;;;;;;;8.18;3.85;;;;;;;-3.16;100.00;101791.47;4994620;28;20097;-78
2022/12/25 07:48:18;;;;;;;4.43;2.87;;;;;;;-3.10;100.00;101795.63;4994719;28;20022;-74
2022/12/25 07:50:47;;;;;;;6.43;3.20;;;;;;;-3.07;100.00;101816.38;4979130;28;20297;-72
2022/12/25 07:53:12;;;;;;;5.68;3.95;;;;;;;-3.09;100.00;101801.69;4977179;28;20096;-70
2022/12/25 07:55:38;;;;;;;14.23;3.63;;;;;;;-3.09;100.00;101807.75;4974510;28;20094;-69
2022/12/25 07:58:03;;;;;;;7.37;5.17;;;;;;;-3.05;100.00;101817.16;4992754;28;20084;-70
2022/12/25 08:00:31;;;;;;;3.97;2.97;;;;;;;-2.96;100.00;101829.88;4996095;28;20536;-70
2022/12/25 08:02:58;;;;;;;7.67;2.77;;;;;;;-2.98;100.00;101821.25;4978928;28;20022;-71
2022/12/25 08:05:24;;;;;;;4.15;3.13;;;;;;;-3.00;100.00;101817.00;4962968;28;20280;-72
2022/12/25 08:07:54;;;;;;;4.37;3.10;;;;;;;-2.85;100.00;101835.63;4997212;28;20026;-72
2022/12/25 08:10:20;;;;;;;9.53;2.80;;;;;;;-2.82;100.00;101832.91;4996409;28;20042;-72
2022/12/25 08:12:46;;;;;;;5.87;3.40;;;;;;;-2.85;100.00;101838.22;4997219;28;20323;-74
2022/12/25 08:15:12;;;;;;;5.27;3.87;;;;;;;-2.85;100.00;101840.81;4997229;28;20393;-69
2022/12/25 08:17:38;;;;;;;8.10;3.90;;;;;;;-2.84;99.93;101850.34;4980982;28;20058;-69
2022/12/25 08:20:04;;;;;;;18.80;5.60;;;;;;;-2.96;100.00;101834.25;4997954;28;20269;-69
2022/12/25 08:22:30;;;;;;;5.40;3.60;;;;;;;-2.94;100.00;101848.94;4995844;28;20022;-69
2022/12/25 08:24:55;;;;;;;6.00;3.17;;;;;;;-2.94;100.00;101848.94;4999756;28;20700;-72
2022/12/25 08:27:21;;;;;;;13.30;3.97;;;;;;;-2.86;100.00;101857.38;4996962;28;20141;-74
2022/12/25 08:29:46;;;;;;;5.60;3.33;;;;;;;-2.89;100.00;101852.25;4996891;28;20030;-68
2022/12/25 08:32:12;;;;;;;6.17;3.70;;;;;;;-2.80;100.00;101871.97;4995975;28;20486;-69
2022/12/25 08:34:37;;;;;;;9.77;5.27;;;;;;;-2.86;99.94;101859.97;4995511;28;20026;-67
2022/12/25 08:37:03;;;;;;;6.90;3.70;;;;;;;-2.89;99.88;101852.25;4994049;28;20374;-69
2022/12/25 08:39:29;;;;;;;7.00;3.70;;;;;;;-2.84;99.10;101865.16;4960500;28;20094;-69
2022/12/25 08:41:55;;;;;;;4.83;3.33;;;;;;;-2.87;98.98;101866.09;4994130;28;20038;-68
2022/12/25 08:44:20;;;;;;;7.40;4.00;;;;;;;-2.92;98.85;101867.97;4980135;28;20070;-68
2022/12/25 08:46:46;;;;;;;7.33;4.30;;;;;;;-2.92;98.94;101877.53;4977613;28;20022;-68
2022/12/25 08:49:11;;;;;;;5.77;3.70;;;;;;;-2.93;98.54;101881.91;4976659;28;20066;-70
2022/12/25 08:51:37;;;;;;;5.30;3.77;;;;;;;-3.02;98.43;101878.75;4995642;28;20063;-70
2022/12/25 08:54:03;;;;;;;4.80;3.07;;;;;;;-2.97;98.78;101889.88;4978049;28;20040;-69
2022/12/25 08:56:29;;;;;;;5.20;3.90;;;;;;;-3.03;98.35;101880.50;4997015;28;20281;-68
2022/12/25 08:58:54;;;;;;;5.77;3.97;;;;;;;-2.92;99.17;101895.78;4996656;28;20065;-69
2022/12/25 09:01:20;;;;;;;6.77;3.40;;;;;;;-2.94;97.67;101889.78;4995945;28;20077;-71
2022/12/25 09:03:45;;;;;;;4.33;3.40;;;;;;;-2.90;98.06;101891.38;4996496;28;20023;-68
2022/12/25 09:06:13;;;;;;;8.43;4.23;;;;;;;-2.88;97.11;101900.88;4996756;28;20478;-69
2022/12/25 09:08:39;;;;;;;7.85;3.95;;;;;;;-2.90;97.58;101905.28;4982244;28;20030;-68
2022/12/25 09:11:10;;;;;;;5.70;3.63;;;;;;;-2.90;97.32;101897.44;4995785;28;20049;-67
2022/12/25 09:13:36;;;;;;;5.95;4.13;;;;;;;-2.94;96.17;101900.22;4979397;28;20261;-69
2022/12/25 09:16:09;;;;;;;6.70;3.92;;;;;;;-2.89;96.96;101907.00;4997075;28;20034;-68
2022/12/25 09:18:34;;;;;;;6.82;3.97;;;;;;;-2.93;96.04;101896.69;4996559;28;20069;-67
2022/12/25 09:21:05;;;;;;;9.37;3.87;;;;;;;-2.89;96.98;101907.00;4996034;28;20030;-67
2022/12/25 09:23:32;;;;;;;12.77;7.70;;;;;;;-2.83;96.31;101911.16;4995164;28;20034;-67
2022/12/25 09:25:59;;;;;;;20.88;13.68;;;;;;;-2.79;96.21;101904.94;4995274;28;20121;-69
2022/12/25 09:28:24;;;;;;;5.00;3.57;;;;;;;-2.71;95.78;101908.16;4994743;28;20022;-70
2022/12/25 09:30:51;;;;;;;8.20;4.77;;;;;;;-2.65;95.96;101907.94;4996582;28;20257;-70
2022/12/25 09:33:17;;;;;;;7.47;3.70;;;;;;;-2.66;94.31;101908.00;4995362;28;20030;-70
2022/12/25 09:35:43;;;;;;;8.57;4.50;;;;;;;-2.91;93.86;101864.47;4995315;28;20295;-68
2022/12/25 09:38:09;;;;;;;6.83;3.27;;;;;;;-2.58;94.30;101908.63;4986507;28;20318;-69
2022/12/25 09:40:35;;;;;;;6.38;2.88;;;;;;;-2.58;92.77;101913.84;4996256;28;20060;-69
2022/12/25 09:43:02;;;;;;;8.23;4.00;;;;;;;-2.50;92.65;101922.25;4977678;28;20660;-68
2022/12/25 09:45:34;;;;;;;12.05;7.10;;;;;;;-2.45;93.21;101909.91;4995142;28;20030;-68
2022/12/25 09:48:01;;;;;;;5.20;3.60;;;;;;;-2.44;92.60;101922.03;4977447;28;20050;-68
2022/12/25 09:50:55;;;;;;;7.03;3.70;;;;;;;-2.41;92.59;101927.16;4994340;28;20257;-67
2022/12/25 09:53:22;;;;;;;4.87;2.70;;;;;;;-2.46;91.67;101936.88;4991877;28;20352;-67
2022/12/25 09:56:02;;;;;;;5.53;3.50;;;;;;;-2.41;92.19;101928.91;4994327;28;20324;-68
2022/12/25 09:58:29;;;;;;;4.53;3.90;;;;;;;-2.26;91.63;101929.25;4996108;28;20257;-69
2022/12/25 10:01:22;;;;;;;4.97;2.72;;;;;;;-2.00;91.22;101937.94;4994430;28;20261;-69
2022/12/25 10:04:21;;;;;;;3.87;3.00;;;;;;;-1.89;89.64;101938.41;4994787;28;20487;-68
2022/12/25 10:07:06;;;;;;;5.13;3.08;;;;;;;-1.92;89.30;101939.38;4997906;28;20265;-67
2022/12/25 10:09:56;;;;;;;6.13;3.40;;;;;;;-2.07;89.58;101944.25;4981743;28;20038;-69
2022/12/25 10:12:44;;;;;;;7.23;3.00;;;;;;;-2.16;90.22;101942.84;4997948;28;20276;-67
2022/12/25 10:15:28;;;;;;;4.27;3.23;;;;;;;-2.11;90.62;101956.56;4997969;28;20389;-68
2022/12/25 10:18:19;;;;;;;5.07;2.70;;;;;;;-2.03;89.93;101959.75;4995969;28;20265;-68
2022/12/25 10:20:54;;;;;;;4.43;2.90;;;;;;;-2.10;88.50;101957.41;4992083;28;20667;-70
2022/12/25 10:23:39;;;;;;;6.40;3.37;;;;;;;-2.20;89.36;101949.91;4993533;28;20270;-69
2022/12/25 10:26:18;;;;;;;4.67;3.60;;;;;;;-2.28;89.14;101953.69;4993381;28;20289;-68
2022/12/25 10:28:54;;;;;;;5.22;2.80;;;;;;;-2.43;89.34;101949.81;4993002;28;20428;-69
2022/12/25 10:31:22;;;;;;;5.83;3.20;;;;;;;-2.70;89.92;101912.47;4993382;28;20026;-68
2022/12/25 10:33:49;;;;;;;4.68;3.67;;;;;;;-2.46;90.78;101955.16;4993548;28;20277;-67
2022/12/25 10:36:19;;;;;;;8.15;6.07;;;;;;;-2.47;90.75;101942.16;4992978;28;20466;-68
2022/12/25 10:38:47;;;;;;;15.80;6.67;;;;;;;-2.32;90.32;101960.75;4993510;28;20514;-67
2022/12/25 10:42:02;;;;;;;18.00;8.73;;;;;;;-2.10;90.37;101967.88;4993416;28;20348;-67
2022/12/25 10:44:28;;;;;;;32.00;24.73;;;;;;;-1.95;89.50;101973.44;4949567;28;20912;-68
2022/12/25 10:46:58;;;;;;;12.50;7.73;;;;;;;-1.93;89.03;101965.53;4990315;28;20370;-68
2022/12/25 10:49:28;;;;;;;7.27;4.00;;;;;;;-2.45;88.73;101903.81;4995187;28;20080;-69
2022/12/25 10:51:54;;;;;;;7.68;3.95;;;;;;;-2.22;89.12;101961.31;4999096;28;20257;-68
2022/12/25 10:54:27;;;;;;;7.43;3.30;;;;;;;-2.12;89.27;101972.28;4995960;28;20485;-67
2022/12/25 10:56:58;;;;;;;8.77;3.93;;;;;;;-2.05;89.64;101972.00;4995773;28;20038;-69
2022/12/25 10:59:26;;;;;;;6.53;3.73;;;;;;;-1.95;88.93;101975.19;4994322;28;20734;-68
2022/12/25 11:01:53;;;;;;;6.25;3.92;;;;;;;-1.88;89.13;101980.13;4993988;28;20265;-68
2022/12/25 11:04:27;;;;;;;9.13;4.60;;;;;;;-1.79;89.53;101978.94;4994435;28;20109;-68
2022/12/25 11:07:05;;;;;;;10.50;5.37;;;;;;;-1.85;88.69;101963.50;4993471;28;20253;-68
2022/12/25 11:09:32;;;;;;;6.43;4.20;;;;;;;-1.84;89.49;101980.88;4993025;28;20258;-68
2022/12/25 11:11:58;;;;;;;5.70;4.43;;;;;;;-1.87;89.14;101976.63;4976278;28;20733;-68
2022/12/25 11:14:58;;;;;;;8.00;4.33;;;;;;;-1.89;90.13;101981.03;4996232;28;20764;-71
2022/12/25 11:17:26;;;;;;;6.97;4.50;;;;;;;-1.97;89.67;101975.25;4993403;28;20301;-69
2022/12/25 11:20:26;;;;;;;6.90;3.80;;;;;;;-2.06;90.25;101979.91;4992715;28;20264;-68
2022/12/25 11:22:55;;;;;;;6.03;4.07;;;;;;;-2.10;91.03;101993.97;4955268;28;20284;-71
2022/12/25 11:25:26;;;;;;;5.33;4.67;;;;;;;-2.13;91.01;101983.63;4944946;28;20284;-68
2022/12/25 11:28:04;;;;;;;5.90;3.33;;;;;;;-2.32;91.50;101937.25;4994749;28;20277;-68
2022/12/25 11:30:32;;;;;;;8.07;5.17;;;;;;;-1.96;90.90;101991.75;4993327;28;20493;-70
2022/12/25 11:33:11;;;;;;;7.63;3.80;;;;;;;-2.02;91.06;101963.25;4976344;28;20364;-68
2022/12/25 11:35:44;;;;;;;;;;;;;;;-1.77;90.84;101986.72;4997582;28;20038;-69
2022/12/25 11:38:13;;;;;;;6.47;3.50;;;;;;;-1.76;90.70;101981.44;4979681;28;19914;-68
2022/12/25 11:40:54;;;;;;;4.60;3.70;;;;;;;-1.86;90.42;101961.78;4998057;28;20285;-67
2022/12/25 11:43:31;;;;;;;5.73;3.27;;;;;;;-1.72;90.68;101979.59;4998685;28;20041;-68
2022/12/25 11:46:32;;;;;;;3.73;3.40;;;;;;;-1.63;90.55;101995.78;5000967;28;20264;-68
2022/12/25 11:49:05;;;;;;;4.50;3.23;;;;;;;-1.59;91.04;102007.84;4985846;28;20277;-70
2022/12/25 11:51:40;;;;;;;7.73;3.33;;;;;;;-1.55;90.37;102011.19;4998337;28;20312;-68
2022/12/25 11:54:32;;;;;;;3.67;3.20;;;;;;;-1.48;91.05;102014.44;4998631;28;20265;-69
2022/12/25 11:57:03;;;;;;;4.10;3.20;;;;;;;-1.53;90.79;102003.28;5003833;28;20637;-69
2022/12/25 11:59:48;;;;;;;8.50;4.63;;;;;;;-1.46;90.30;102029.13;4999763;28;20269;-70
2022/12/25 12:02:38;;;;;;;4.03;3.43;;;;;;;-1.46;90.98;102015.22;4977489;28;20778;-68
2022/12/25 12:05:13;;;;;;;15.43;9.10;;;;;;;-1.48;90.74;102027.50;4963339;28;20273;-69
2022/12/25 12:07:56;;;;;;;11.83;4.77;;;;;;;-1.57;90.22;102032.16;4996889;28;20281;-68
2022/12/25 12:11:14;;;;;;;7.70;3.33;;;;;;;-1.49;90.19;102038.84;4996201;28;20261;-67
2022/12/25 12:14:15;;;;;;;4.30;2.85;;;;;;;-1.43;89.82;102025.59;4992641;28;20365;-66
2022/12/25 12:16:41;;;;;;;5.67;3.47;;;;;;;-1.47;89.11;102039.66;5000913;28;20038;-69
2022/12/25 12:19:30;;;;;;;10.30;3.60;;;;;;;-1.44;89.58;102027.34;4997656;28;20258;-68
2022/12/25 12:22:00;;;;;;;;;;;;;;;-1.37;89.47;102048.88;4997090;28;20378;-69
2022/12/25 12:24:41;;;;;;;6.30;3.57;;;;;;;-1.44;89.72;102044.78;4999302;28;19910;-69
2022/12/25 12:27:21;;;;;;;7.33;3.77;;;;;;;-1.67;89.86;101994.19;4979761;28;20285;-68
2022/12/25 12:29:54;;;;;;;7.27;3.43;;;;;;;-1.35;89.38;102036.63;4997209;28;20297;-67
2022/12/25 12:32:34;;;;;;;5.30;3.37;;;;;;;-1.35;89.57;102044.47;4996294;28;20261;-68
2022/12/25 12:35:08;;;;;;;6.63;3.07;;;;;;;-1.38;89.26;102052.41;4996953;28;20277;-69
2022/12/25 12:37:42;;;;;;;6.00;3.40;;;;;;;-1.39;88.82;102066.38;4996020;28;20356;-68
2022/12/25 12:40:40;;;;;;;5.17;3.73;;;;;;;-1.31;88.79;102059.13;4996142;28;20381;-71
2022/12/25 12:43:39;;;;;;;4.43;3.70;;;;;;;-1.29;88.44;102063.38;4997116;28;20273;-68
2022/12/25 12:46:18;;;;;;;4.88;3.33;;;;;;;-1.34;88.24;102057.47;4996365;28;20316;-68
2022/12/25 12:48:48;;;;;;;5.90;3.77;;;;;;;-1.33;87.95;102067.00;4995908;28;20030;-68
2022/12/25 12:51:35;;;;;;;7.57;4.20;;;;;;;-1.30;88.56;102073.88;4981737;28;20333;-70
2022/12/25 12:54:26;;;;;;;5.77;3.40;;;;;;;-1.34;87.49;102075.75;4995619;28;20258;-68
2022/12/25 12:57:20;;;;;;;9.87;4.90;;;;;;;-1.37;87.49;102080.25;4990922;28;20623;-70
2022/12/25 12:59:46;;;;;;;5.83;4.30;;;;;;;-1.38;87.92;102073.31;4995481;28;20250;-67
2022/12/25 13:02:18;;;;;;;5.43;3.07;;;;;;;-1.42;87.89;102087.41;4995324;28;20269;-67
2022/12/25 13:04:57;;;;;;;7.57;4.63;;;;;;;-1.49;87.89;102091.97;4995212;28;20285;-69
2022/12/25 13:07:42;;;;;;;6.60;3.93;;;;;;;-1.60;87.74;102084.50;4994795;28;20257;-68
2022/12/25 13:10:30;;;;;;;7.57;3.57;;;;;;;-1.66;88.26;102086.47;4996004;28;20275;-69
2022/12/25 13:13:02;;;;;;;5.67;3.50;;;;;;;-1.77;88.54;102080.75;4995989;28;20264;-68
2022/12/25 13:15:31;;;;;;;7.60;3.83;;;;;;;-1.68;88.30;102096.13;4995463;28;20273;-69
2022/12/25 13:18:23;;;;;;;7.33;4.13;;;;;;;-1.70;88.29;102105.78;4995823;28;20386;-70
2022/12/25 13:21:00;;;;;;;5.37;3.70;;;;;;;-1.83;88.40;102097.47;4962739;28;20277;-70
2022/12/25 13:23:33;;;;;;;6.07;4.40;;;;;;;-1.86;88.46;102097.56;4995742;28;20820;-70
2022/12/25 13:26:05;;;;;;;7.97;4.03;;;;;;;-1.96;88.46;102080.53;4995233;28;20356;-71